createdAt,value
2022-11-16T00:19:41.518Z,8.10
2022-11-16T00:49:52.410Z,8.20
2022-11-16T01:20:08.909Z,8.30
2022-11-16T01:50:19.810Z,8.40
2022-11-16T02:20:50.415Z,8.30
2022-11-16T02:51:09.748Z,8.20
2022-11-16T03:21:29.820Z,8.10
2022-11-16T03:51:38.921Z,8.20
2022-11-16T04:22:03.724Z,8.10
2022-11-16T04:52:15.668Z,8.00
2022-11-16T05:22:25.501Z,7.90
2022-11-16T05:52:36.163Z,7.80
2022-11-16T06:22:59.297Z,7.80
2022-11-16T06:53:08.819Z,7.90
2022-11-16T07:23:22.410Z,7.90
2022-11-16T07:53:35.726Z,8.10
2022-11-16T08:23:45.052Z,8.30
2022-11-16T08:54:01.781Z,9.00
2022-11-16T09:24:15.779Z,8.80
2022-11-16T09:54:34.730Z,8.70
2022-11-16T10:24:55.594Z,8.90
2022-11-16T10:55:12.327Z,9.50
2022-11-16T11:25:27.689Z,9.50
2022-11-16T11:55:41.782Z,9.50
2022-11-16T12:26:01.056Z,9.40
2022-11-16T12:56:33.119Z,9.40
2022-11-16T13:26:50.888Z,9.40
2022-11-16T13:57:03.406Z,9.20
2022-11-16T14:27:27.747Z,8.90
2022-11-16T14:57:46.794Z,8.80
2022-11-16T15:27:56.427Z,8.50
2022-11-16T15:58:17.075Z,8.40
2022-11-16T16:28:35.821Z,8.30
2022-11-16T16:58:46.807Z,8.10
2022-11-16T17:29:00.928Z,8.00
2022-11-16T17:59:09.587Z,7.60
2022-11-16T18:29:28.153Z,7.40
2022-11-16T18:59:39.137Z,7.00
2022-11-16T19:29:50.606Z,6.40
2022-11-16T20:00:04.369Z,6.70
2022-11-16T20:30:17.472Z,6.00
2022-11-16T21:00:26.297Z,5.50
2022-11-16T21:30:34.774Z,5.00
2022-11-16T22:00:56.531Z,4.70
2022-11-16T22:31:19.994Z,4.20
2022-11-16T23:01:28.671Z,4.00
2022-11-16T23:31:37.178Z,3.60
